Time;durP1;ratioP1;P1;durP2;ratioP2;P2;SDS_P1;SDS_P2;PMS_P1;PMS_P2;Temp;Humidity;BMP_temperature;BMP_pressure;BME280_temperature;BME280_humidity;BME280_pressure;Samples;Min_cycle;Max_cycle;Signal;HPM_P1;HPM_P2
2023/11/21 00:00:37;;;;;;;5.27;4.77;;;21.30;88.20;;;;;;4993236;28;20209;-67
2023/11/21 00:03:04;;;;;;;4.40;4.10;;;21.40;87.70;;;;;;4990594;28;20190;-66
2023/11/21 00:05:35;;;;;;;3.53;2.73;;;21.60;87.70;;;;;;5002867;28;20189;-65
2023/11/21 00:08:02;;;;;;;3.23;2.70;;;21.70;86.60;;;;;;4965514;28;20188;-65
2023/11/21 00:10:29;;;;;;;2.57;1.90;;;22.00;86.30;;;;;;4987781;28;20185;-66
2023/11/21 00:12:57;;;;;;;2.07;1.70;;;22.00;85.00;;;;;;4991925;28;20182;-66
2023/11/21 00:15:24;;;;;;;1.20;1.10;;;22.20;84.80;;;;;;4993296;28;20193;-66
2023/11/21 00:17:51;;;;;;;1.23;1.13;;;22.10;83.80;;;;;;4993486;28;20182;-66
2023/11/21 00:20:19;;;;;;;2.53;1.10;;;22.60;83.20;;;;;;4993467;28;20256;-66
2023/11/21 00:22:47;;;;;;;2.93;1.30;;;22.80;82.80;;;;;;4959579;28;20198;-65
2023/11/21 00:25:15;;;;;;;1.17;0.90;;;23.10;82.40;;;;;;4993441;28;20170;-67
2023/11/21 00:27:43;;;;;;;1.93;1.17;;;23.00;80.30;;;;;;4993022;28;20196;-66
2023/11/21 00:30:10;;;;;;;1.63;0.90;;;22.90;80.60;;;;;;4992849;28;20189;-66
2023/11/21 00:32:38;;;;;;;1.47;0.90;;;22.80;80.60;;;;;;4993153;28;20206;-66
2023/11/21 00:35:06;;;;;;;1.90;0.80;;;22.60;82.60;;;;;;4992731;28;20178;-64
2023/11/21 00:37:33;;;;;;;2.23;0.80;;;22.40;82.10;;;;;;4992886;28;20228;-68
2023/11/21 00:40:04;;;;;;;0.80;0.77;;;22.30;82.70;;;;;;4992671;28;20566;-68
2023/11/21 00:42:33;;;;;;;1.53;0.80;;;22.20;82.30;;;;;;4991023;28;20201;-70
2023/11/21 00:45:01;;;;;;;2.53;0.80;;;22.10;83.60;;;;;;4992980;28;20186;-67
2023/11/21 00:47:28;;;;;;;1.00;0.90;;;22.00;83.50;;;;;;4993114;28;20251;-68
2023/11/21 00:49:56;;;;;;;0.97;0.83;;;22.10;82.90;;;;;;4993165;28;20213;-68
2023/11/21 00:52:24;;;;;;;1.47;1.00;;;22.20;82.80;;;;;;4993083;28;20255;-68
2023/11/21 00:54:51;;;;;;;1.03;0.93;;;22.40;82.30;;;;;;4992850;28;20186;-68
2023/11/21 00:57:18;;;;;;;0.80;0.80;;;22.90;82.60;;;;;;4993399;28;20241;-69
2023/11/21 00:59:46;;;;;;;0.93;0.80;;;23.30;79.90;;;;;;4991337;28;20197;-71
2023/11/21 01:02:14;;;;;;;1.20;0.80;;;23.50;79.50;;;;;;4992879;28;20269;-70
2023/11/21 01:04:41;;;;;;;1.23;0.90;;;23.90;77.70;;;;;;4993399;28;20624;-72
2023/11/21 01:07:09;;;;;;;1.37;0.80;;;24.50;77.10;;;;;;4993057;28;20189;-71
2023/11/21 01:09:36;;;;;;;1.13;1.00;;;24.30;76.40;;;;;;4990605;28;20179;-71
2023/11/21 01:12:04;;;;;;;1.07;0.90;;;24.20;77.80;;;;;;4992880;28;20193;-72
2023/11/21 01:14:31;;;;;;;1.00;0.80;;;24.00;77.30;;;;;;4995859;28;20178;-71
2023/11/21 01:16:58;;;;;;;0.80;0.70;;;24.20;76.80;;;;;;4993599;28;20603;-70
2023/11/21 01:19:25;;;;;;;1.23;0.70;;;24.30;77.70;;;;;;4996570;28;20182;-74
2023/11/21 01:21:53;;;;;;;1.60;0.70;;;24.10;75.50;;;;;;4995374;28;20231;-71
2023/11/21 01:24:20;;;;;;;3.40;1.10;;;23.80;76.40;;;;;;4996572;28;20182;-69
2023/11/21 01:26:47;;;;;;;1.93;0.70;;;23.60;77.90;;;;;;4996373;28;20292;-71
2023/11/21 01:29:15;;;;;;;0.70;0.60;;;23.50;77.50;;;;;;4996276;28;20182;-70
2023/11/21 01:31:42;;;;;;;1.53;0.60;;;23.60;77.50;;;;;;4996193;28;20185;-70
2023/11/21 01:34:09;;;;;;;1.23;0.50;;;23.30;78.00;;;;;;4994710;28;20178;-71
2023/11/21 01:36:36;;;;;;;0.67;0.50;;;23.60;78.00;;;;;;4995972;28;20663;-72
2023/11/21 01:39:08;;;;;;;0.93;0.67;;;23.70;77.30;;;;;;4996294;28;20177;-70
2023/11/21 01:41:35;;;;;;;0.70;0.70;;;23.90;77.00;;;;;;4995837;28;20213;-73
2023/11/21 01:44:03;;;;;;;1.90;1.80;;;24.10;77.10;;;;;;4995835;28;20316;-72
2023/11/21 01:46:30;;;;;;;1.73;1.60;;;23.80;75.90;;;;;;4986636;28;20186;-68
2023/11/21 01:48:58;;;;;;;1.67;1.13;;;24.10;75.80;;;;;;4979922;28;20198;-69
2023/11/21 01:51:26;;;;;;;1.93;1.00;;;24.60;74.00;;;;;;4991050;28;20186;-70
2023/11/21 01:53:54;;;;;;;3.80;0.77;;;24.70;74.80;;;;;;4987472;28;20209;-72
2023/11/21 01:56:21;;;;;;;1.63;1.10;;;24.80;73.10;;;;;;4995274;28;20178;-73
2023/11/21 01:58:49;;;;;;;0.53;0.40;;;24.70;73.40;;;;;;4990624;28;20328;-70
2023/11/21 02:01:18;;;;;;;1.90;0.70;;;24.60;72.90;;;;;;4996075;28;20214;-69
2023/11/21 02:03:45;;;;;;;3.00;0.60;;;24.40;73.50;;;;;;4995199;28;20216;-72
2023/11/21 02:06:13;;;;;;;1.43;0.60;;;24.70;73.60;;;;;;4995382;28;20561;-72
2023/11/21 02:08:44;;;;;;;1.53;0.73;;;24.60;72.50;;;;;;4964419;28;20198;-71
2023/11/21 02:11:14;;;;;;;1.23;0.70;;;24.40;74.60;;;;;;4990243;28;20182;-71
2023/11/21 02:13:45;;;;;;;2.47;0.67;;;24.30;75.00;;;;;;4994100;28;20285;-71
2023/11/21 02:16:13;;;;;;;1.90;0.63;;;24.20;75.10;;;;;;4995054;28;20612;-70
2023/11/21 02:18:41;;;;;;;2.83;1.17;;;24.20;74.40;;;;;;4995590;28;20276;-70
2023/11/21 02:21:10;;;;;;;1.87;0.90;;;24.10;74.80;;;;;;4994410;28;20620;-72
2023/11/21 02:23:38;;;;;;;2.63;0.93;;;24.20;74.50;;;;;;4992454;28;20269;-71
2023/11/21 02:26:06;;;;;;;1.20;0.70;;;23.80;74.70;;;;;;4992556;28;20194;-70
2023/11/21 02:28:33;;;;;;;1.10;0.60;;;23.90;75.90;;;;;;4994566;28;20188;-72
2023/11/21 02:31:02;;;;;;;2.23;0.77;;;24.00;74.00;;;;;;4995567;28;20243;-72
2023/11/21 02:33:31;;;;;;;0.77;0.53;;;23.80;75.20;;;;;;5001453;28;20616;-73
2023/11/21 02:35:58;;;;;;;1.63;0.90;;;23.60;75.80;;;;;;4995773;28;20305;-71
2023/11/21 02:38:26;;;;;;;1.47;0.70;;;23.40;78.40;;;;;;4994364;28;20257;-73
2023/11/21 02:40:53;;;;;;;0.90;0.60;;;23.40;79.00;;;;;;4993414;28;20213;-71
2023/11/21 02:43:20;;;;;;;1.63;0.80;;;23.60;78.30;;;;;;4989594;28;20178;-74
2023/11/21 02:45:48;;;;;;;0.90;0.60;;;23.90;76.70;;;;;;4993684;28;20193;-71
2023/11/21 02:48:15;;;;;;;1.30;0.70;;;24.00;75.10;;;;;;4985339;28;20209;-72
2023/11/21 02:50:43;;;;;;;3.53;0.90;;;24.10;74.60;;;;;;4980146;28;20587;-71
2023/11/21 02:53:10;;;;;;;3.77;0.90;;;24.50;73.90;;;;;;4992898;28;20190;-69
2023/11/21 02:55:38;;;;;;;3.07;1.10;;;24.90;73.40;;;;;;4992512;28;20252;-72
2023/11/21 02:58:06;;;;;;;2.27;1.10;;;25.30;71.60;;;;;;4989036;28;20182;-69
2023/11/21 03:00:33;;;;;;;2.40;1.00;;;25.80;70.60;;;;;;4985457;28;20213;-68
2023/11/21 03:03:01;;;;;;;3.00;0.63;;;25.70;69.50;;;;;;4984434;28;20228;-68
2023/11/21 03:05:28;;;;;;;3.03;0.83;;;25.70;69.20;;;;;;4987323;28;20182;-69
2023/11/21 03:07:56;;;;;;;5.37;1.50;;;25.50;70.50;;;;;;4982978;28;20196;-72
2023/11/21 03:10:23;;;;;;;7.37;1.20;;;25.20;70.30;;;;;;4988139;28;20261;-70
2023/11/21 03:12:50;;;;;;;3.77;0.97;;;25.00;71.00;;;;;;4989090;28;20212;-72
2023/11/21 03:15:18;;;;;;;3.97;0.70;;;24.70;71.90;;;;;;4983897;28;20190;-72
2023/11/21 03:17:45;;;;;;;3.40;1.17;;;24.40;72.80;;;;;;5001727;28;20186;-72
2023/11/21 03:20:13;;;;;;;3.63;1.00;;;24.30;74.70;;;;;;4987220;28;20225;-73
2023/11/21 03:22:41;;;;;;;4.87;0.90;;;24.40;73.40;;;;;;4990180;28;20192;-72
2023/11/21 03:25:12;;;;;;;4.17;1.00;;;24.40;74.20;;;;;;4990973;28;20193;-72
2023/11/21 03:27:39;;;;;;;2.73;0.90;;;24.80;73.80;;;;;;4989763;28;20190;-73
2023/11/21 03:30:09;;;;;;;3.37;0.80;;;25.00;72.40;;;;;;4990309;28;20182;-75
2023/11/21 03:32:36;;;;;;;4.60;1.00;;;24.90;71.00;;;;;;4994186;28;20648;-75
2023/11/21 03:35:03;;;;;;;4.60;0.83;;;24.80;71.40;;;;;;4992119;28;20221;-70
2023/11/21 03:37:31;;;;;;;4.30;0.80;;;24.60;72.50;;;;;;4992888;28;20696;-69
2023/11/21 03:39:58;;;;;;;3.27;0.70;;;25.00;72.40;;;;;;5003216;28;20274;-66
2023/11/21 03:42:26;;;;;;;7.23;1.20;;;25.00;71.60;;;;;;4990687;28;21011;-70
2023/11/21 03:44:54;;;;;;;5.77;1.00;;;24.90;71.30;;;;;;4999988;28;20253;-68
2023/11/21 03:47:21;;;;;;;4.83;0.90;;;25.20;71.60;;;;;;4992911;28;20548;-67
2023/11/21 03:49:48;;;;;;;3.90;1.10;;;25.30;70.70;;;;;;4992499;28;20196;-70
2023/11/21 03:52:16;;;;;;;3.80;1.30;;;25.80;68.40;;;;;;4992600;28;20273;-74
2023/11/21 03:54:43;;;;;;;3.67;0.90;;;26.30;69.20;;;;;;4976812;28;20178;-70
2023/11/21 03:57:11;;;;;;;4.70;0.93;;;26.20;67.80;;;;;;4992502;28;20197;-71
2023/11/21 03:59:41;;;;;;;2.27;0.83;;;26.10;68.10;;;;;;4992839;28;20224;-66
2023/11/21 04:02:09;;;;;;;9.87;1.40;;;26.70;67.80;;;;;;4993019;28;20312;-72
2023/11/21 04:04:37;;;;;;;3.50;0.73;;;27.20;64.90;;;;;;4991952;28;20546;-72
2023/11/21 04:07:04;;;;;;;2.27;0.50;;;27.30;63.90;;;;;;4993786;28;20269;-68
2023/11/21 04:09:31;;;;;;;4.73;1.10;;;27.80;63.10;;;;;;4986486;28;20590;-71
2023/11/21 04:11:59;;;;;;;2.93;0.70;;;27.90;61.20;;;;;;4987091;28;20197;-68
2023/11/21 04:14:26;;;;;;;3.07;0.70;;;28.30;61.20;;;;;;5003153;28;20198;-68
2023/11/21 04:16:53;;;;;;;2.50;0.90;;;28.30;59.80;;;;;;4986899;28;20258;-70
2023/11/21 04:19:21;;;;;;;1.23;0.50;;;28.30;60.40;;;;;;4991955;28;20261;-71
2023/11/21 04:21:48;;;;;;;1.67;0.70;;;28.80;59.00;;;;;;4993330;28;20210;-72
2023/11/21 04:24:15;;;;;;;3.63;0.70;;;29.10;58.10;;;;;;4993374;28;20748;-68
2023/11/21 04:26:43;;;;;;;4.67;0.70;;;29.00;56.70;;;;;;4989684;28;20621;-71
2023/11/21 04:29:11;;;;;;;3.17;0.70;;;29.30;56.90;;;;;;4992183;28;20220;-69
2023/11/21 04:31:38;;;;;;;5.13;0.70;;;29.60;55.10;;;;;;5003330;28;20286;-67
2023/11/21 04:34:06;;;;;;;2.50;0.70;;;29.40;56.40;;;;;;4993486;28;20173;-69
2023/11/21 04:36:34;;;;;;;1.93;0.70;;;29.10;56.10;;;;;;4992659;28;20192;-68
2023/11/21 04:39:01;;;;;;;3.13;0.60;;;28.80;56.40;;;;;;4983541;28;20249;-67
2023/11/21 04:41:28;;;;;;;2.13;0.60;;;28.70;56.40;;;;;;4989336;28;20214;-71
2023/11/21 04:43:56;;;;;;;1.37;0.50;;;28.50;57.10;;;;;;4973880;28;20232;-69
2023/11/21 04:46:23;;;;;;;1.43;0.40;;;28.50;57.60;;;;;;4984534;28;20190;-65
2023/11/21 04:48:50;;;;;;;1.13;0.50;;;28.50;55.80;;;;;;4994480;28;20197;-71
2023/11/21 04:51:17;;;;;;;1.73;0.57;;;27.80;57.20;;;;;;4994689;28;20187;-68
2023/11/21 04:53:45;;;;;;;2.27;0.60;;;28.00;59.90;;;;;;4991761;28;20280;-71
2023/11/21 04:56:12;;;;;;;2.83;0.90;;;28.40;56.10;;;;;;4994246;28;20656;-71
2023/11/21 04:58:39;;;;;;;3.33;1.03;;;28.60;57.50;;;;;;4994778;28;20182;-69
2023/11/21 05:01:08;;;;;;;1.87;0.80;;;29.20;56.10;;;;;;4994911;28;20217;-71
2023/11/21 05:03:38;;;;;;;2.40;0.77;;;28.90;56.80;;;;;;4978505;28;20186;-72
2023/11/21 05:06:06;;;;;;;4.13;0.77;;;28.80;56.60;;;;;;4996224;28;20178;-70
2023/11/21 05:08:33;;;;;;;3.53;0.83;;;28.70;57.80;;;;;;4979399;28;20193;-70
2023/11/21 05:11:00;;;;;;;3.00;0.87;;;28.30;58.40;;;;;;4970895;28;20195;-71
2023/11/21 05:13:28;;;;;;;3.17;0.60;;;27.90;59.00;;;;;;4990593;28;20208;-68
2023/11/21 05:15:57;;;;;;;1.50;0.50;;;28.00;59.10;;;;;;4992451;28;20221;-68
2023/11/21 05:18:27;;;;;;;0.97;0.40;;;27.90;57.50;;;;;;4993895;28;20190;-66
2023/11/21 05:20:54;;;;;;;1.33;0.60;;;28.10;57.70;;;;;;4990921;28;20220;-68
2023/11/21 05:23:21;;;;;;;0.73;0.37;;;28.60;55.70;;;;;;4993763;28;20182;-68
2023/11/21 05:25:49;;;;;;;1.73;0.60;;;29.00;54.50;;;;;;4989788;28;20193;-68
2023/11/21 05:28:16;;;;;;;1.25;0.57;;;29.10;53.30;;;;;;4993643;28;20190;-69
2023/11/21 05:30:43;;;;;;;1.13;0.50;;;29.30;53.80;;;;;;4991521;28;20202;-68
2023/11/21 05:33:11;;;;;;;2.00;0.57;;;28.30;56.50;;;;;;4994533;28;20253;-67
2023/11/21 05:35:38;;;;;;;1.97;0.67;;;27.80;58.20;;;;;;4991263;28;20546;-70
2023/11/21 05:38:05;;;;;;;4.70;1.00;;;27.60;60.00;;;;;;4994583;28;21743;-68
2023/11/21 05:40:33;;;;;;;3.40;0.70;;;28.70;57.90;;;;;;4995493;28;20308;-68
2023/11/21 05:43:00;;;;;;;4.10;1.10;;;28.80;56.50;;;;;;4998868;28;20201;-71
2023/11/21 05:45:28;;;;;;;2.70;0.70;;;28.50;56.80;;;;;;4992545;28;20186;-70
2023/11/21 05:47:56;;;;;;;3.63;0.80;;;27.90;58.40;;;;;;4995117;28;20601;-71
2023/11/21 05:50:23;;;;;;;1.80;0.50;;;27.60;59.60;;;;;;4994361;28;20542;-73
2023/11/21 05:52:50;;;;;;;3.90;1.10;;;27.10;61.10;;;;;;4992043;28;20190;-72
2023/11/21 05:55:20;;;;;;;3.20;0.90;;;26.80;61.90;;;;;;4993057;28;20221;-71
2023/11/21 05:57:48;;;;;;;3.63;0.60;;;26.30;63.10;;;;;;4992046;28;20217;-68
2023/11/21 06:00:20;;;;;;;6.53;1.13;;;26.30;64.00;;;;;;4993665;28;20267;-69
2023/11/21 06:02:52;;;;;;;3.70;1.33;;;25.90;64.60;;;;;;4990463;28;20610;-73
2023/11/21 06:05:25;;;;;;;3.20;1.07;;;25.50;66.00;;;;;;4990637;28;20193;-71
2023/11/21 06:08:10;;;;;;;4.63;1.30;;;25.50;67.10;;;;;;4990412;28;20198;-71
2023/11/21 06:10:39;;;;;;;5.60;1.00;;;25.40;66.70;;;;;;4994862;28;20289;-67
2023/11/21 06:13:08;;;;;;;4.60;0.93;;;25.30;67.70;;;;;;4994068;28;20193;-67
2023/11/21 06:15:35;;;;;;;7.33;1.00;;;25.10;68.00;;;;;;4976605;28;20818;-70
2023/11/21 06:18:10;;;;;;;2.87;0.90;;;25.10;68.50;;;;;;4990610;28;20677;-73
2023/11/21 06:20:37;;;;;;;3.77;0.93;;;25.00;68.60;;;;;;4994123;28;20221;-71
2023/11/21 06:23:06;;;;;;;2.43;0.90;;;25.20;69.10;;;;;;4992649;28;20201;-73
2023/11/21 06:25:39;;;;;;;2.53;0.90;;;25.50;66.30;;;;;;4994387;28;20519;-73
2023/11/21 06:28:18;;;;;;;9.33;1.57;;;25.50;66.50;;;;;;4976392;28;20185;-72
2023/11/21 06:30:50;;;;;;;4.13;0.90;;;26.00;65.30;;;;;;4990469;28;20652;-72
2023/11/21 06:33:21;;;;;;;2.63;0.63;;;26.50;64.90;;;;;;4993425;28;20244;-68
2023/11/21 06:35:51;;;;;;;2.30;1.00;;;26.30;64.70;;;;;;4991581;28;20268;-72
2023/11/21 06:38:22;;;;;;;4.07;0.90;;;26.00;63.90;;;;;;4991725;28;20198;-71
2023/11/21 06:40:50;;;;;;;2.20;0.77;;;25.80;65.30;;;;;;4967613;28;20248;-71
2023/11/21 06:43:17;;;;;;;6.17;1.03;;;25.60;66.30;;;;;;4984029;28;20183;-72
2023/11/21 06:45:45;;;;;;;5.00;1.10;;;25.80;65.80;;;;;;4994470;28;20189;-71
2023/11/21 06:48:13;;;;;;;2.83;1.17;;;25.90;65.00;;;;;;4994426;28;20201;-72
2023/11/21 06:50:41;;;;;;;1.93;0.80;;;26.50;63.60;;;;;;4993331;28;20190;-68
2023/11/21 06:53:09;;;;;;;2.50;0.70;;;26.00;63.90;;;;;;4992672;28;20656;-67
2023/11/21 06:55:37;;;;;;;3.23;0.77;;;25.30;65.70;;;;;;4991868;28;20208;-70
2023/11/21 06:58:06;;;;;;;2.30;0.90;;;24.80;67.90;;;;;;4994187;28;20182;-72
2023/11/21 07:00:34;;;;;;;2.27;0.80;;;24.50;70.10;;;;;;4993891;28;20210;-69
2023/11/21 07:03:01;;;;;;;3.33;0.90;;;24.40;69.70;;;;;;4990559;28;20305;-72
2023/11/21 07:05:29;;;;;;;5.03;1.20;;;24.60;69.10;;;;;;4993086;28;20280;-73
2023/11/21 07:07:56;;;;;;;4.00;0.90;;;24.50;69.50;;;;;;4993851;28;20214;-74
2023/11/21 07:10:26;;;;;;;4.47;1.57;;;24.30;69.90;;;;;;4992924;28;20209;-73
2023/11/21 07:12:54;;;;;;;3.17;1.00;;;24.30;70.30;;;;;;4990297;28;20183;-71
2023/11/21 07:15:22;;;;;;;4.43;0.80;;;24.10;70.80;;;;;;4998555;28;20175;-70
2023/11/21 07:17:56;;;;;;;3.37;0.90;;;23.80;71.60;;;;;;4994543;28;20202;-67
2023/11/21 07:20:23;;;;;;;5.60;1.10;;;23.80;72.20;;;;;;4989056;28;20193;-68
2023/11/21 07:23:06;;;;;;;2.27;0.73;;;23.70;72.30;;;;;;5003817;28;20221;-74
2023/11/21 07:25:35;;;;;;;2.90;0.60;;;23.60;73.20;;;;;;4981820;28;20712;-73
2023/11/21 07:28:03;;;;;;;1.87;0.73;;;23.60;72.60;;;;;;4976508;28;20189;-71
2023/11/21 07:30:30;;;;;;;4.03;1.00;;;23.70;72.30;;;;;;4982531;28;20194;-73
2023/11/21 07:32:58;;;;;;;3.37;0.70;;;23.50;73.00;;;;;;4993850;28;20182;-72
2023/11/21 07:35:31;;;;;;;5.87;1.20;;;23.60;73.50;;;;;;4992998;28;20216;-69
2023/11/21 07:37:58;;;;;;;5.77;1.30;;;23.70;72.80;;;;;;4992208;28;20232;-67
2023/11/21 07:40:32;;;;;;;5.50;1.23;;;23.60;74.00;;;;;;4994673;28;20231;-71
2023/11/21 07:43:01;;;;;;;4.27;1.37;;;23.60;74.00;;;;;;4985324;28;20187;-69
2023/11/21 07:45:33;;;;;;;2.57;0.80;;;23.30;74.30;;;;;;4993454;28;20185;-68
2023/11/21 07:48:04;;;;;;;3.60;1.07;;;23.30;74.60;;;;;;4980768;28;20190;-66
2023/11/21 07:50:34;;;;;;;2.93;1.00;;;23.30;74.60;;;;;;4991600;28;20193;-70
2023/11/21 07:53:05;;;;;;;3.00;0.80;;;23.20;74.40;;;;;;4973738;28;20277;-73
2023/11/21 07:55:33;;;;;;;3.33;1.00;;;23.00;75.00;;;;;;4990668;28;20218;-68
2023/11/21 07:58:00;;;;;;;2.20;1.00;;;23.00;75.20;;;;;;4992133;28;20185;-73
2023/11/21 08:00:30;;;;;;;6.47;1.20;;;22.80;75.90;;;;;;4990481;28;20205;-73
2023/11/21 08:02:57;;;;;;;1.97;0.90;;;22.60;76.50;;;;;;4989920;28;20209;-70
2023/11/21 08:05:24;;;;;;;3.17;0.83;;;22.40;77.30;;;;;;4991268;28;20272;-69
2023/11/21 08:07:52;;;;;;;1.60;0.83;;;22.30;77.90;;;;;;4993628;28;20182;-67
2023/11/21 08:10:21;;;;;;;2.13;1.07;;;22.30;78.10;;;;;;4991788;28;20197;-67
2023/11/21 08:12:50;;;;;;;2.13;0.70;;;22.20;78.50;;;;;;4994882;28;20216;-69
2023/11/21 08:15:17;;;;;;;3.10;0.97;;;22.10;77.90;;;;;;4985801;28;20186;-70
2023/11/21 08:17:45;;;;;;;3.87;0.87;;;22.00;78.50;;;;;;4988401;28;20178;-69
2023/11/21 08:20:16;;;;;;;4.07;1.27;;;22.00;79.10;;;;;;4989658;28;20240;-71
2023/11/21 08:22:47;;;;;;;4.13;1.17;;;22.00;79.40;;;;;;4987036;28;20195;-71
2023/11/21 08:25:17;;;;;;;3.13;1.00;;;22.00;79.40;;;;;;4983160;28;20186;-67
2023/11/21 08:27:44;;;;;;;3.10;1.17;;;22.00;79.10;;;;;;4975368;28;20264;-71
2023/11/21 08:30:13;;;;;;;2.27;0.80;;;22.00;79.30;;;;;;4991851;28;20189;-71
2023/11/21 08:32:41;;;;;;;3.37;0.90;;;21.90;79.90;;;;;;4989443;28;20186;-72
2023/11/21 08:35:12;;;;;;;4.33;0.80;;;21.90;79.80;;;;;;4984653;28;20656;-70
2023/11/21 08:37:39;;;;;;;2.67;0.87;;;21.80;80.10;;;;;;4977633;28;20280;-73
2023/11/21 08:40:12;;;;;;;2.37;1.00;;;21.80;80.30;;;;;;4992294;28;20182;-72
2023/11/21 08:42:39;;;;;;;2.63;1.10;;;21.70;80.60;;;;;;4990456;28;20288;-71
2023/11/21 08:45:08;;;;;;;4.10;1.27;;;21.70;80.70;;;;;;4988578;28;20282;-73
2023/11/21 08:47:36;;;;;;;2.93;1.00;;;21.80;80.70;;;;;;4991946;28;20186;-71
2023/11/21 08:50:06;;;;;;;4.90;1.30;;;21.80;80.80;;;;;;4993351;28;20181;-70
2023/11/21 08:52:33;;;;;;;2.27;0.90;;;21.80;81.20;;;;;;4984513;28;20228;-70
2023/11/21 08:55:07;;;;;;;3.07;0.93;;;21.70;80.90;;;;;;4992411;28;20186;-69
2023/11/21 08:57:38;;;;;;;6.37;1.07;;;21.60;81.50;;;;;;4993414;28;20732;-71
2023/11/21 09:00:11;;;;;;;5.40;1.00;;;21.50;81.70;;;;;;4981582;28;20680;-68
2023/11/21 09:02:41;;;;;;;4.30;1.53;;;21.60;82.10;;;;;;4994062;28;20268;-71
2023/11/21 09:05:10;;;;;;;4.83;1.10;;;21.60;82.20;;;;;;4993889;28;20194;-69
2023/11/21 09:07:38;;;;;;;4.93;1.33;;;21.70;82.20;;;;;;4975826;28;20256;-70
2023/11/21 09:10:07;;;;;;;6.97;1.47;;;21.60;82.10;;;;;;4991837;28;20182;-70
2023/11/21 09:12:36;;;;;;;6.60;1.20;;;21.60;82.10;;;;;;4990104;28;20190;-67
2023/11/21 09:15:09;;;;;;;7.33;1.83;;;21.60;82.80;;;;;;4990830;28;20584;-67
2023/11/21 09:17:37;;;;;;;6.80;1.50;;;21.60;82.90;;;;;;4995262;28;20229;-70
2023/11/21 09:20:05;;;;;;;5.23;1.50;;;21.60;82.90;;;;;;4994006;28;20182;-69
2023/11/21 09:22:33;;;;;;;4.57;1.70;;;21.70;82.90;;;;;;4992738;28;20653;-68
2023/11/21 09:25:00;;;;;;;6.07;1.47;;;21.60;82.60;;;;;;4992379;28;20316;-69
2023/11/21 09:27:28;;;;;;;7.60;2.10;;;21.70;82.80;;;;;;4989983;28;20182;-67
2023/11/21 09:29:55;;;;;;;5.10;1.50;;;21.60;82.60;;;;;;4985499;28;20649;-66
2023/11/21 09:32:22;;;;;;;7.60;1.30;;;21.40;82.50;;;;;;4995306;28;20214;-71
2023/11/21 09:34:50;;;;;;;5.03;1.40;;;21.30;82.60;;;;;;4990574;28;20640;-66
2023/11/21 09:37:18;;;;;;;4.30;1.37;;;21.30;82.90;;;;;;4995094;28;20193;-70
2023/11/21 09:39:47;;;;;;;5.23;1.63;;;21.30;83.10;;;;;;4995051;28;20186;-67
2023/11/21 09:42:30;;;;;;;5.07;1.27;;;21.30;83.30;;;;;;4993781;28;20245;-71
2023/11/21 09:45:25;;;;;;;5.40;1.60;;;21.20;83.00;;;;;;4980746;28;20182;-68
2023/11/21 09:47:57;;;;;;;3.23;1.10;;;21.20;83.60;;;;;;4986768;28;20190;-67
2023/11/21 09:50:26;;;;;;;5.63;1.43;;;21.20;83.70;;;;;;4980154;28;20186;-68
2023/11/21 09:53:21;;;;;;;6.83;1.40;;;21.30;83.50;;;;;;4994714;28;20186;-71
2023/11/21 09:55:51;;;;;;;4.13;1.73;;;21.30;83.40;;;;;;4994118;28;20198;-69
2023/11/21 09:58:19;;;;;;;3.70;1.20;;;21.30;83.50;;;;;;4979374;28;20584;-70
2023/11/21 10:00:48;;;;;;;9.43;1.47;;;21.30;83.20;;;;;;4980637;28;20207;-67
2023/11/21 10:03:16;;;;;;;5.03;1.63;;;21.30;82.80;;;;;;4982410;28;20189;-71
2023/11/21 10:05:46;;;;;;;6.50;1.50;;;21.30;83.00;;;;;;4982153;28;20253;-68
2023/11/21 10:08:14;;;;;;;5.77;1.50;;;21.30;83.20;;;;;;4980257;28;20221;-68
2023/11/21 10:10:45;;;;;;;7.57;1.43;;;21.30;82.90;;;;;;4985620;28;20198;-69
2023/11/21 10:13:16;;;;;;;5.17;1.33;;;21.30;82.90;;;;;;4984028;28;20190;-68
2023/11/21 10:15:48;;;;;;;6.27;1.63;;;21.30;83.00;;;;;;4988789;28;20218;-69
2023/11/21 10:18:16;;;;;;;7.33;1.67;;;21.40;83.00;;;;;;4993422;28;20194;-68
2023/11/21 10:20:51;;;;;;;3.93;1.40;;;21.30;82.90;;;;;;4987409;28;20305;-72
2023/11/21 10:23:23;;;;;;;7.80;1.63;;;21.40;83.00;;;;;;4998278;28;20185;-71
2023/11/21 10:25:52;;;;;;;5.00;1.30;;;21.30;82.60;;;;;;4989388;28;20251;-74
2023/11/21 10:28:20;;;;;;;4.50;1.20;;;21.20;82.90;;;;;;4984256;28;20179;-72
2023/11/21 10:30:47;;;;;;;4.87;1.27;;;21.20;83.00;;;;;;4990298;28;20550;-71
2023/11/21 10:33:15;;;;;;;5.53;1.20;;;21.20;82.90;;;;;;4989413;28;20233;-71
2023/11/21 10:35:54;;;;;;;6.47;1.43;;;21.20;83.10;;;;;;4975841;28;20683;-69
2023/11/21 10:38:27;;;;;;;7.03;1.40;;;21.20;83.00;;;;;;4994117;28;20185;-69
2023/11/21 10:40:54;;;;;;;11.83;1.90;;;21.30;83.20;;;;;;4992211;28;20205;-72
2023/11/21 10:43:26;;;;;;;5.93;1.40;;;21.20;83.00;;;;;;5000918;28;20185;-71
2023/11/21 10:45:59;;;;;;;3.83;1.53;;;21.20;83.10;;;;;;4997444;28;20634;-70
2023/11/21 10:48:27;;;;;;;4.20;1.37;;;21.20;83.40;;;;;;4990592;28;21558;-67
2023/11/21 10:50:56;;;;;;;2.93;1.10;;;21.30;83.40;;;;;;4993598;28;20186;-67
2023/11/21 10:53:23;;;;;;;6.90;1.33;;;21.20;83.40;;;;;;4993843;28;20256;-69
2023/11/21 10:56:01;;;;;;;4.10;1.33;;;21.20;83.40;;;;;;4986273;28;20193;-73
2023/11/21 10:58:29;;;;;;;2.20;0.83;;;21.20;83.40;;;;;;4993898;28;20193;-71
2023/11/21 11:00:57;;;;;;;3.40;1.00;;;21.00;83.20;;;;;;4981167;28;20300;-69
2023/11/21 11:03:24;;;;;;;4.67;1.27;;;21.00;83.10;;;;;;4992525;28;20202;-70
2023/11/21 11:05:54;;;;;;;9.27;1.77;;;21.00;83.40;;;;;;4992822;28;20182;-71
2023/11/21 11:08:27;;;;;;;4.03;1.70;;;21.00;83.70;;;;;;4992002;28;20648;-71
2023/11/21 11:10:54;;;;;;;6.57;1.47;;;20.90;83.90;;;;;;5001413;28;20185;-71
2023/11/21 11:13:22;;;;;;;4.43;1.30;;;20.80;84.00;;;;;;5003381;28;20196;-73
2023/11/21 11:15:50;;;;;;;6.10;1.50;;;20.80;84.00;;;;;;4991015;28;20234;-71
2023/11/21 11:18:17;;;;;;;5.40;1.40;;;20.80;84.10;;;;;;4994598;28;20205;-71
2023/11/21 11:20:48;;;;;;;5.23;1.30;;;20.80;84.10;;;;;;4987411;28;20199;-68
2023/11/21 11:23:39;;;;;;;3.90;1.50;;;20.80;84.10;;;;;;4994698;28;20186;-67
2023/11/21 11:26:27;;;;;;;5.33;1.40;;;20.80;84.10;;;;;;4994269;28;20178;-71
2023/11/21 11:29:16;;;;;;;2.33;1.13;;;20.80;84.10;;;;;;5006208;28;20185;-71
2023/11/21 11:32:01;;;;;;;5.07;1.40;;;20.90;84.20;;;;;;4993303;28;20185;-73
2023/11/21 11:34:37;;;;;;;6.30;1.40;;;20.80;84.20;;;;;;4992321;28;20557;-73
2023/11/21 11:37:08;;;;;;;2.90;1.20;;;20.70;84.20;;;;;;5006351;28;20176;-73
2023/11/21 11:39:45;;;;;;;6.80;1.50;;;20.70;84.10;;;;;;4991932;28;20207;-72
2023/11/21 11:42:20;;;;;;;3.80;1.57;;;20.70;84.20;;;;;;4989716;28;20233;-72
2023/11/21 11:44:51;;;;;;;5.30;1.73;;;20.70;84.30;;;;;;4992775;28;20188;-71
2023/11/21 11:47:33;;;;;;;6.43;1.60;;;20.70;84.30;;;;;;4993040;28;20205;-72
2023/11/21 11:50:10;;;;;;;4.13;1.37;;;20.70;84.40;;;;;;4984177;28;20187;-72
2023/11/21 11:52:43;;;;;;;4.43;1.50;;;20.70;84.60;;;;;;4994209;28;20252;-69
2023/11/21 11:55:17;;;;;;;3.13;1.30;;;20.70;84.50;;;;;;4993441;28;20174;-67
2023/11/21 11:57:55;;;;;;;3.07;1.53;;;20.60;84.50;;;;;;4990636;28;20182;-69
2023/11/21 12:00:30;;;;;;;4.20;1.30;;;20.60;84.90;;;;;;4982146;28;20223;-71
2023/11/21 12:03:02;;;;;;;7.47;1.87;;;20.60;84.60;;;;;;4993752;28;20693;-72
2023/11/21 12:05:43;;;;;;;2.83;1.37;;;20.60;84.20;;;;;;4990796;28;20694;-71
2023/11/21 12:08:12;;;;;;;5.77;1.60;;;20.60;84.00;;;;;;4993448;28;20552;-72
2023/11/21 12:10:40;;;;;;;3.73;1.53;;;20.60;84.20;;;;;;4997898;28;20209;-73
2023/11/21 12:13:11;;;;;;;4.37;1.30;;;20.60;84.20;;;;;;4993260;28;20185;-69
2023/11/21 12:15:41;;;;;;;7.03;1.60;;;20.70;84.10;;;;;;4992779;28;20295;-67
2023/11/21 12:18:09;;;;;;;4.27;1.60;;;20.50;84.20;;;;;;4983563;28;20182;-72
2023/11/21 12:20:38;;;;;;;4.80;1.30;;;20.50;84.10;;;;;;4990577;28;20245;-71
2023/11/21 12:23:08;;;;;;;3.60;1.47;;;20.50;84.30;;;;;;4993182;28;20213;-68
2023/11/21 12:25:36;;;;;;;3.20;1.50;;;20.50;84.50;;;;;;4994410;28;20192;-70
2023/11/21 12:28:05;;;;;;;5.00;1.53;;;20.50;84.50;;;;;;4992086;28;20181;-71
2023/11/21 12:30:37;;;;;;;4.40;1.50;;;20.50;84.60;;;;;;4996237;28;20574;-70
2023/11/21 12:33:08;;;;;;;3.53;1.40;;;20.50;84.30;;;;;;4974857;28;20180;-72
2023/11/21 12:35:36;;;;;;;8.23;2.10;;;20.50;84.20;;;;;;4983359;28;20219;-70
2023/11/21 12:38:05;;;;;;;3.30;1.30;;;20.50;84.20;;;;;;4991635;28;20186;-70
2023/11/21 12:40:33;;;;;;;3.87;1.47;;;20.60;83.90;;;;;;4991493;28;20222;-71
2023/11/21 12:43:01;;;;;;;2.93;1.30;;;20.60;83.70;;;;;;4983233;28;20174;-70
2023/11/21 12:45:30;;;;;;;5.67;1.27;;;20.60;83.80;;;;;;4991656;28;20265;-72
2023/11/21 12:48:02;;;;;;;5.33;1.60;;;20.60;83.60;;;;;;5001791;28;20177;-70
2023/11/21 12:50:33;;;;;;;4.33;1.37;;;20.50;83.50;;;;;;4992417;28;20217;-67
2023/11/21 12:53:05;;;;;;;5.07;1.73;;;20.50;83.60;;;;;;4992722;28;20588;-67
2023/11/21 12:55:37;;;;;;;5.27;1.60;;;20.50;83.60;;;;;;5000963;28;20185;-70
2023/11/21 12:58:09;;;;;;;5.57;1.40;;;20.50;83.80;;;;;;4995129;28;20178;-68